首页
METAR-TAF:

METAR-TAF

机场 :

Crystal Airport

明尼阿波利斯 / Crystal, 明尼蘇達州, 美国

纬度: 45-03-45N, 经度: 093-21-03W, 海拔: 264米

当前天气观测

该预报发布于12分钟前的08:53 UTC
风速5节,风向西南
温度 18°C
湿度 73%
气压 1014 hPa
能見度: 16.1公里
天空无云

METAR: KMIC 260853Z AUTO 23005KT 10SM CLR 18/13 A2994 RMK AO2 SLP136 T01780133 53015

时间: 04:05 (09:05 UTC)


TAF: 丢失

超过4000个机场的气象观测和天气预报(METAR&TAF报告)。

可查询的气象台以黄色和红色小点在地图上表示。

将鼠标移到小点上方,可查看气象台名称。

然后点击查看天气观测和预报。

如需切换地图:点击带黑十字的绿色按钮放大地图;点击带横线的绿色按钮缩小地图;或者点击绿色箭头查看邻近地区的地图。


METAR-TAF: